Time;durP1;ratioP1;P1;durP2;ratioP2;P2;SDS_P1;SDS_P2;PMS_P1;PMS_P2;Temp;Humidity;BMP_temperature;BMP_pressure;BME280_temperature;BME280_humidity;BME280_pressure;Samples;Min_cycle;Max_cycle;Signal;HPM_P1;HPM_P2
2023/02/04 00:00:12;;;;;;;10.07;2.70;;;7.40;99.90;;;;;;6116064;23;20393;-69
2023/02/04 00:02:39;;;;;;;7.93;4.27;;;7.50;99.90;;;;;;6113734;23;20813;-71
2023/02/04 00:05:08;;;;;;;23.23;2.67;;;7.50;99.90;;;;;;6113099;23;20449;-72
2023/02/04 00:07:38;;;;;;;9.30;2.70;;;7.50;99.90;;;;;;6117265;23;20389;-71
2023/02/04 00:10:07;;;;;;;9.80;4.10;;;7.50;99.90;;;;;;6119039;23;20443;-70
2023/02/04 00:12:34;;;;;;;6.83;2.20;;;7.60;99.90;;;;;;6114001;23;20756;-72
2023/02/04 00:15:01;;;;;;;20.53;4.00;;;7.60;99.90;;;;;;6113248;23;20393;-72
2023/02/04 00:17:28;;;;;;;10.67;1.97;;;7.60;99.90;;;;;;6114161;23;20389;-70
2023/02/04 00:19:55;;;;;;;6.03;2.33;;;7.60;99.90;;;;;;6114585;23;20389;-71
2023/02/04 00:22:22;;;;;;;5.40;2.83;;;7.60;99.90;;;;;;6110796;23;20488;-71
2023/02/04 00:24:50;;;;;;;3.47;2.13;;;7.50;99.90;;;;;;6122984;23;20444;-71
2023/02/04 00:27:17;;;;;;;3.43;1.50;;;7.50;99.90;;;;;;6115390;23;20821;-71
2023/02/04 00:29:44;;;;;;;6.90;3.00;;;7.60;99.90;;;;;;6113960;23;20412;-68
2023/02/04 00:32:11;;;;;;;6.93;2.30;;;7.60;99.90;;;;;;6113769;23;20432;-70
2023/02/04 00:34:38;;;;;;;15.80;4.33;;;7.70;99.90;;;;;;6117429;23;20726;-69
2023/02/04 00:37:05;;;;;;;5.40;2.80;;;7.70;99.90;;;;;;6116657;23;20394;-71
2023/02/04 00:39:33;;;;;;;3.13;1.93;;;7.60;99.90;;;;;;6116788;23;20502;-70
2023/02/04 00:42:01;;;;;;;15.47;2.90;;;7.70;99.90;;;;;;6115604;23;20526;-70
2023/02/04 00:44:29;;;;;;;8.50;3.00;;;7.70;99.90;;;;;;6115900;23;20451;-70
2023/02/04 00:46:57;;;;;;;2.37;1.83;;;7.70;99.90;;;;;;6115262;23;20413;-70
2023/02/04 00:49:23;;;;;;;5.90;2.83;;;7.70;99.90;;;;;;6063002;23;21041;-69
2023/02/04 00:51:51;;;;;;;13.30;3.00;;;7.80;99.90;;;;;;6117700;23;20469;-70
2023/02/04 00:54:18;;;;;;;11.83;3.00;;;7.70;99.90;;;;;;6118615;23;21089;-71
2023/02/04 00:56:45;;;;;;;8.87;2.33;;;7.70;99.90;;;;;;6119215;23;20420;-70
2023/02/04 00:59:13;;;;;;;5.90;3.03;;;7.70;99.90;;;;;;6116855;23;20442;-69
2023/02/04 01:01:40;;;;;;;9.37;2.67;;;7.70;99.90;;;;;;6115274;23;20525;-69
2023/02/04 01:04:07;;;;;;;13.73;3.10;;;7.70;99.90;;;;;;6114170;23;20392;-71
2023/02/04 01:06:34;;;;;;;3.63;1.73;;;7.70;99.90;;;;;;6091055;23;20373;-70
2023/02/04 01:09:02;;;;;;;5.03;2.77;;;7.70;99.90;;;;;;6117013;23;20393;-69
2023/02/04 01:11:29;;;;;;;12.40;3.40;;;7.70;99.90;;;;;;6117124;23;21038;-69
2023/02/04 01:13:56;;;;;;;2.00;1.87;;;7.70;99.90;;;;;;6114692;23;20514;-71
2023/02/04 01:16:25;;;;;;;4.70;2.33;;;7.60;99.90;;;;;;6116518;23;20407;-70
2023/02/04 01:18:54;;;;;;;5.50;3.67;;;7.50;99.90;;;;;;6116993;23;20973;-71
2023/02/04 01:21:21;;;;;;;7.03;2.83;;;7.60;99.90;;;;;;6067127;23;20405;-70
2023/02/04 01:23:48;;;;;;;3.63;2.00;;;7.60;99.90;;;;;;6117407;23;20471;-70
2023/02/04 01:26:15;;;;;;;9.13;3.03;;;7.60;99.90;;;;;;6116708;23;20432;-70
2023/02/04 01:28:42;;;;;;;6.00;1.97;;;7.60;99.90;;;;;;6115932;23;20505;-69
2023/02/04 01:31:09;;;;;;;8.10;4.13;;;7.60;99.90;;;;;;6116612;23;20413;-70
2023/02/04 01:33:37;;;;;;;12.90;2.70;;;7.50;99.90;;;;;;6115077;23;21045;-71
2023/02/04 01:36:05;;;;;;;3.50;2.27;;;7.60;99.90;;;;;;6120023;23;20407;-71
2023/02/04 01:38:32;;;;;;;6.50;2.90;;;7.60;99.90;;;;;;6112539;23;20726;-71
2023/02/04 01:40:59;;;;;;;11.60;2.70;;;7.60;99.90;;;;;;6113645;23;20437;-70
2023/02/04 01:43:27;;;;;;;14.93;2.53;;;7.70;99.90;;;;;;6118767;23;20397;-70
2023/02/04 01:45:54;;;;;;;7.60;2.93;;;7.60;99.90;;;;;;6114550;23;20452;-71
2023/02/04 01:48:22;;;;;;;4.70;2.90;;;7.60;99.90;;;;;;6118505;23;20390;-70
2023/02/04 01:50:53;;;;;;;8.00;2.47;;;7.60;99.90;;;;;;6118043;23;20408;-71
2023/02/04 01:53:22;;;;;;;9.87;3.43;;;7.60;99.90;;;;;;6116190;23;20540;-71
2023/02/04 01:55:50;;;;;;;11.03;3.00;;;7.60;99.90;;;;;;6115202;23;20390;-71
2023/02/04 01:58:18;;;;;;;4.83;2.60;;;7.70;99.90;;;;;;6118829;23;20392;-71
2023/02/04 02:00:46;;;;;;;8.37;1.90;;;7.70;99.90;;;;;;6116940;23;20475;-70
2023/02/04 02:03:12;;;;;;;5.63;2.23;;;7.70;99.90;;;;;;6112809;23;20414;-71
2023/02/04 02:05:44;;;;;;;16.73;2.80;;;7.70;99.90;;;;;;6113610;23;20423;-71
2023/02/04 02:08:13;;;;;;;4.03;2.83;;;7.60;99.90;;;;;;6113892;23;20377;-69
2023/02/04 02:10:43;;;;;;;12.10;2.40;;;7.60;99.90;;;;;;6114517;23;20430;-71
2023/02/04 02:13:12;;;;;;;4.87;3.10;;;7.60;99.90;;;;;;6119414;23;20494;-71
2023/02/04 02:15:39;;;;;;;8.23;2.60;;;7.70;99.90;;;;;;6089272;23;20489;-70
2023/02/04 02:18:07;;;;;;;10.63;2.80;;;7.70;99.90;;;;;;6114441;23;20447;-71
2023/02/04 02:20:34;;;;;;;17.47;3.63;;;7.70;99.90;;;;;;6116663;23;20978;-71
2023/02/04 02:23:09;;;;;;;3.80;1.90;;;7.80;99.90;;;;;;6116884;23;20389;-69
2023/02/04 02:25:38;;;;;;;3.53;1.57;;;7.80;99.90;;;;;;6114303;23;21167;-71
2023/02/04 02:28:08;;;;;;;4.17;2.43;;;7.80;99.90;;;;;;6114110;23;20901;-71
2023/02/04 02:30:35;;;;;;;4.93;2.03;;;7.80;99.90;;;;;;6113046;23;20421;-69
2023/02/04 02:33:03;;;;;;;7.20;2.87;;;7.80;99.90;;;;;;6114681;23;20417;-69
2023/02/04 02:35:30;;;;;;;19.43;3.00;;;7.80;99.90;;;;;;6115645;23;21158;-72
2023/02/04 02:37:57;;;;;;;11.50;2.93;;;7.70;99.90;;;;;;6114953;23;21130;-70
2023/02/04 02:40:26;;;;;;;3.60;2.30;;;7.70;99.90;;;;;;6116236;23;20418;-69
2023/02/04 02:42:55;;;;;;;12.50;4.43;;;7.70;99.90;;;;;;6115810;23;20540;-68
2023/02/04 02:45:25;;;;;;;6.10;2.93;;;7.70;99.90;;;;;;6114058;23;20760;-70
2023/02/04 02:47:52;;;;;;;6.17;2.47;;;7.60;99.90;;;;;;6114962;23;20386;-70
2023/02/04 02:50:22;;;;;;;10.23;3.00;;;7.70;99.90;;;;;;6110156;23;20529;-70
2023/02/04 02:52:49;;;;;;;15.03;4.30;;;7.60;99.90;;;;;;6117123;23;20438;-69
2023/02/04 02:55:18;;;;;;;5.67;2.30;;;7.70;99.90;;;;;;6117329;23;20478;-70
2023/02/04 02:57:48;;;;;;;6.37;3.33;;;7.70;99.90;;;;;;6113585;23;21148;-70
2023/02/04 03:00:19;;;;;;;15.07;3.40;;;7.60;99.90;;;;;;6114413;23;20388;-70
2023/02/04 03:03:01;;;;;;;18.40;4.03;;;7.60;99.90;;;;;;6113819;23;20784;-70
2023/02/04 03:05:30;;;;;;;6.20;4.43;;;7.60;99.90;;;;;;6115368;23;20416;-69
2023/02/04 03:07:57;;;;;;;3.93;1.90;;;7.60;99.90;;;;;;6117264;23;20533;-70
2023/02/04 03:10:24;;;;;;;14.60;2.77;;;7.60;99.90;;;;;;6118143;23;21244;-70
2023/02/04 03:12:51;;;;;;;6.73;2.70;;;7.60;99.90;;;;;;6065517;23;20517;-70
2023/02/04 03:15:20;;;;;;;10.97;4.10;;;7.60;99.90;;;;;;6118779;23;20384;-70
2023/02/04 03:17:47;;;;;;;6.50;2.03;;;7.60;99.90;;;;;;6115685;23;20411;-70
2023/02/04 03:20:16;;;;;;;4.73;2.13;;;7.70;99.90;;;;;;6112588;23;20390;-69
2023/02/04 03:22:43;;;;;;;9.30;3.17;;;7.60;99.90;;;;;;6114375;23;21011;-69
2023/02/04 03:25:11;;;;;;;9.87;4.97;;;7.70;99.90;;;;;;6116156;23;20553;-70
2023/02/04 03:27:38;;;;;;;6.37;2.07;;;7.70;99.90;;;;;;6118904;23;21334;-70
2023/02/04 03:30:07;;;;;;;5.60;2.47;;;7.70;99.90;;;;;;6112868;23;20954;-71
2023/02/04 03:32:36;;;;;;;9.13;2.30;;;7.50;99.90;;;;;;6113609;23;20800;-70
2023/02/04 03:35:03;;;;;;;8.03;2.33;;;7.60;99.90;;;;;;6113842;23;20421;-69
2023/02/04 03:37:30;;;;;;;10.20;2.40;;;7.60;99.90;;;;;;6115354;23;20410;-70
2023/02/04 03:39:57;;;;;;;7.33;2.60;;;7.70;99.90;;;;;;6115757;23;20389;-70
2023/02/04 03:42:24;;;;;;;7.73;2.80;;;7.70;99.90;;;;;;6115367;23;20484;-69
2023/02/04 03:44:51;;;;;;;10.47;3.80;;;7.60;99.90;;;;;;6116104;23;20906;-69
2023/02/04 03:47:18;;;;;;;7.77;2.17;;;7.70;99.90;;;;;;6117619;23;20386;-70
2023/02/04 03:49:48;;;;;;;15.90;3.33;;;7.70;99.90;;;;;;6114609;23;20414;-70
2023/02/04 03:52:15;;;;;;;13.47;2.10;;;7.70;99.90;;;;;;6112545;23;20434;-68
2023/02/04 03:54:42;;;;;;;7.77;3.07;;;7.60;99.90;;;;;;6112353;23;20466;-69
2023/02/04 03:57:09;;;;;;;3.50;1.80;;;7.60;99.90;;;;;;6115827;23;20469;-69
2023/02/04 03:59:36;;;;;;;8.57;3.13;;;7.70;99.90;;;;;;6115664;23;20389;-70
2023/02/04 04:02:03;;;;;;;7.30;2.50;;;7.70;99.90;;;;;;6115354;23;20817;-68
2023/02/04 04:04:30;;;;;;;14.03;3.10;;;7.70;99.90;;;;;;6118960;23;20708;-70
2023/02/04 04:06:59;;;;;;;3.50;3.20;;;7.70;99.90;;;;;;6119873;23;20536;-69
2023/02/04 04:09:26;;;;;;;5.33;2.50;;;7.80;99.90;;;;;;6116446;23;20460;-70
2023/02/04 04:11:53;;;;;;;9.27;2.17;;;7.60;99.90;;;;;;6119438;23;20436;-69
2023/02/04 04:14:20;;;;;;;7.00;2.70;;;7.60;99.90;;;;;;6121965;23;20961;-70
2023/02/04 04:16:47;;;;;;;10.73;3.70;;;7.50;99.90;;;;;;6113527;23;20416;-68
2023/02/04 04:19:14;;;;;;;7.47;1.67;;;7.50;99.90;;;;;;6117390;23;20410;-70
2023/02/04 04:21:40;;;;;;;16.77;2.70;;;7.60;99.90;;;;;;6117023;23;20413;-69
2023/02/04 04:24:09;;;;;;;4.03;2.60;;;7.60;99.90;;;;;;6116613;23;20937;-69
2023/02/04 04:26:36;;;;;;;6.83;2.20;;;7.60;99.90;;;;;;6114304;23;20450;-68
2023/02/04 04:29:03;;;;;;;5.03;2.40;;;7.60;99.90;;;;;;6116320;23;20465;-71
2023/02/04 04:31:30;;;;;;;5.87;2.67;;;7.70;99.90;;;;;;6116236;23;20480;-70
2023/02/04 04:33:57;;;;;;;9.90;2.80;;;7.70;99.90;;;;;;6120444;23;20426;-69
2023/02/04 04:36:23;;;;;;;23.03;4.23;;;7.70;99.90;;;;;;6116130;23;20481;-69
2023/02/04 04:38:51;;;;;;;8.17;3.10;;;7.70;99.90;;;;;;6116496;23;21208;-70
2023/02/04 04:41:19;;;;;;;5.13;2.37;;;7.70;99.90;;;;;;6117919;23;20514;-69
2023/02/04 04:43:46;;;;;;;4.40;1.80;;;7.80;99.90;;;;;;6118825;23;20461;-69
2023/02/04 04:46:12;;;;;;;11.20;3.27;;;7.80;99.90;;;;;;6117550;23;20773;-68
2023/02/04 04:48:40;;;;;;;13.10;3.07;;;7.70;99.90;;;;;;6114894;23;21229;-70
2023/02/04 04:51:07;;;;;;;12.63;2.93;;;7.70;99.90;;;;;;6113628;23;20441;-69
2023/02/04 04:53:34;;;;;;;5.90;2.50;;;7.70;99.90;;;;;;6119197;23;20483;-70
2023/02/04 04:56:01;;;;;;;8.00;2.13;;;7.70;99.90;;;;;;6116134;23;20411;-71
2023/02/04 04:58:29;;;;;;;7.40;2.23;;;7.70;99.90;;;;;;6113078;23;20389;-70
2023/02/04 05:00:56;;;;;;;3.37;2.03;;;7.70;99.90;;;;;;6126849;23;20437;-70
2023/02/04 05:03:23;;;;;;;3.10;2.80;;;7.80;99.90;;;;;;6115401;23;20549;-70
2023/02/04 05:05:50;;;;;;;9.03;2.50;;;7.80;99.90;;;;;;6115446;23;20418;-71
2023/02/04 05:08:18;;;;;;;3.93;1.90;;;7.70;99.90;;;;;;6114642;23;20390;-69
2023/02/04 05:10:45;;;;;;;5.93;2.10;;;7.70;99.90;;;;;;6117753;23;20418;-70
2023/02/04 05:13:12;;;;;;;8.07;2.60;;;7.80;99.90;;;;;;6115221;23;20381;-70
2023/02/04 05:15:41;;;;;;;5.97;2.10;;;7.90;99.90;;;;;;6113608;23;20421;-68
2023/02/04 05:18:08;;;;;;;10.57;3.23;;;7.80;99.90;;;;;;6112944;23;21200;-70
2023/02/04 05:20:35;;;;;;;12.33;4.00;;;7.80;99.90;;;;;;6115127;23;20877;-69
2023/02/04 05:23:02;;;;;;;11.03;4.90;;;7.80;99.90;;;;;;6114913;23;20493;-70
2023/02/04 05:25:29;;;;;;;6.10;2.30;;;7.80;99.90;;;;;;6115227;23;20426;-70
2023/02/04 05:27:56;;;;;;;7.83;3.23;;;7.70;99.90;;;;;;6116926;23;20414;-70
2023/02/04 05:30:23;;;;;;;4.90;3.20;;;7.70;99.90;;;;;;6063007;23;20397;-69
2023/02/04 05:32:51;;;;;;;8.00;3.13;;;7.80;99.90;;;;;;6114822;23;20962;-69
2023/02/04 05:35:18;;;;;;;7.60;4.17;;;7.80;99.90;;;;;;6115906;23;20755;-69
2023/02/04 05:37:45;;;;;;;10.10;3.70;;;7.70;99.90;;;;;;6113050;23;20509;-70
2023/02/04 05:40:13;;;;;;;11.30;2.60;;;7.70;99.90;;;;;;6118494;23;20392;-70
2023/02/04 05:42:40;;;;;;;4.80;2.17;;;7.60;99.90;;;;;;6116914;23;20415;-70
2023/02/04 05:45:09;;;;;;;5.30;1.77;;;7.70;99.90;;;;;;6117334;23;20893;-70
2023/02/04 05:47:36;;;;;;;3.13;2.07;;;7.60;99.90;;;;;;6116414;23;20446;-70
2023/02/04 05:50:05;;;;;;;5.17;2.80;;;7.60;99.90;;;;;;6119571;23;20478;-71
2023/02/04 05:52:32;;;;;;;15.90;3.87;;;7.50;99.90;;;;;;6118291;23;20413;-70
2023/02/04 05:54:59;;;;;;;15.53;3.03;;;7.50;99.90;;;;;;6125699;23;20419;-70
2023/02/04 05:57:26;;;;;;;7.70;2.87;;;7.50;99.90;;;;;;6120396;23;21257;-70
2023/02/04 05:59:53;;;;;;;11.60;3.47;;;7.50;99.90;;;;;;6121103;23;20438;-69
2023/02/04 06:02:20;;;;;;;7.83;2.83;;;7.60;99.90;;;;;;6118810;23;20441;-70
2023/02/04 06:04:47;;;;;;;8.50;2.60;;;7.60;99.90;;;;;;6117033;23;20407;-71
2023/02/04 06:07:16;;;;;;;5.50;2.93;;;7.60;99.90;;;;;;6115079;23;20528;-71
2023/02/04 06:09:43;;;;;;;2.00;1.80;;;7.60;99.90;;;;;;6116181;23;20393;-71
2023/02/04 06:12:10;;;;;;;19.43;3.73;;;7.70;99.90;;;;;;6113960;23;20407;-71
2023/02/04 06:14:37;;;;;;;9.00;2.90;;;7.60;99.90;;;;;;6116094;23;20875;-71
2023/02/04 06:17:04;;;;;;;20.13;2.90;;;7.50;99.90;;;;;;6115245;23;20743;-69
2023/02/04 06:19:31;;;;;;;5.83;2.90;;;7.50;99.90;;;;;;6113025;23;21113;-70
2023/02/04 06:21:58;;;;;;;8.60;2.50;;;7.50;99.90;;;;;;6063004;23;20855;-70
2023/02/04 06:24:28;;;;;;;9.03;2.27;;;7.50;99.90;;;;;;6116162;23;20926;-71
2023/02/04 06:26:55;;;;;;;10.60;2.50;;;7.50;99.90;;;;;;6117535;23;20508;-71
2023/02/04 06:29:25;;;;;;;14.80;2.83;;;7.60;99.90;;;;;;6113908;23;20421;-70
2023/02/04 06:31:52;;;;;;;8.27;3.63;;;7.60;99.90;;;;;;6113532;23;20390;-71
2023/02/04 06:34:18;;;;;;;8.83;4.50;;;7.70;99.90;;;;;;6115276;23;20472;-69
2023/02/04 06:36:46;;;;;;;5.70;2.67;;;7.70;99.90;;;;;;6116561;23;20425;-70
2023/02/04 06:39:13;;;;;;;4.20;2.97;;;7.70;99.90;;;;;;6116017;23;20442;-70
2023/02/04 06:41:41;;;;;;;12.50;3.03;;;7.70;99.90;;;;;;6114716;23;20582;-71
2023/02/04 06:44:08;;;;;;;5.93;2.50;;;7.70;99.90;;;;;;6109907;23;20411;-71
2023/02/04 06:46:35;;;;;;;21.73;3.57;;;7.70;99.90;;;;;;6113551;23;20428;-70
2023/02/04 06:49:02;;;;;;;16.23;4.50;;;7.70;99.90;;;;;;6063624;23;20422;-71
2023/02/04 06:51:29;;;;;;;8.00;2.10;;;7.80;99.90;;;;;;6122631;23;20484;-71
2023/02/04 06:53:58;;;;;;;17.90;4.43;;;7.80;99.90;;;;;;6120065;23;20385;-71
2023/02/04 06:56:25;;;;;;;5.17;2.60;;;7.80;99.90;;;;;;6114384;23;20419;-71
2023/02/04 06:58:53;;;;;;;11.53;3.30;;;7.90;99.90;;;;;;6061565;23;20423;-70
2023/02/04 07:01:21;;;;;;;4.03;2.47;;;7.90;99.90;;;;;;6112243;23;20538;-69
2023/02/04 07:03:48;;;;;;;8.97;2.73;;;7.80;99.90;;;;;;6115559;23;20403;-70
2023/02/04 07:06:15;;;;;;;17.37;5.17;;;7.80;99.90;;;;;;6113011;23;20589;-71
2023/02/04 07:08:42;;;;;;;18.93;2.80;;;7.80;99.90;;;;;;6063751;23;20386;-71
2023/02/04 07:11:09;;;;;;;9.73;2.63;;;7.70;99.90;;;;;;6113582;23;20820;-70
2023/02/04 07:13:36;;;;;;;16.33;4.50;;;7.70;99.90;;;;;;6115582;23;20916;-69
2023/02/04 07:16:05;;;;;;;12.67;3.03;;;7.70;99.90;;;;;;6115920;23;20492;-70
2023/02/04 07:18:31;;;;;;;4.90;2.87;;;7.70;99.90;;;;;;6114972;23;20432;-70
2023/02/04 07:21:00;;;;;;;4.40;2.80;;;7.70;99.90;;;;;;6113002;23;20481;-69
2023/02/04 07:23:28;;;;;;;13.70;5.07;;;7.70;99.90;;;;;;6115957;23;20505;-69
2023/02/04 07:25:56;;;;;;;5.90;2.43;;;7.60;99.90;;;;;;6117214;23;20451;-70
2023/02/04 07:28:23;;;;;;;12.03;3.23;;;7.70;99.90;;;;;;6113954;23;20454;-70
2023/02/04 07:30:50;;;;;;;9.97;2.90;;;7.70;99.90;;;;;;6113617;23;20433;-69
2023/02/04 07:33:18;;;;;;;6.20;2.97;;;7.80;99.90;;;;;;6119186;23;20442;-70
2023/02/04 07:35:45;;;;;;;13.30;3.60;;;7.90;99.90;;;;;;6095030;23;20381;-73
2023/02/04 07:38:12;;;;;;;5.93;3.40;;;8.00;99.90;;;;;;6119045;23;20428;-70
2023/02/04 07:40:39;;;;;;;6.63;2.67;;;8.00;99.90;;;;;;6095247;23;20402;-70
2023/02/04 07:43:06;;;;;;;7.10;2.43;;;8.00;99.90;;;;;;6095115;23;20384;-70
2023/02/04 07:45:32;;;;;;;6.80;2.77;;;7.80;99.90;;;;;;6123481;23;20898;-70
2023/02/04 07:47:59;;;;;;;13.50;4.07;;;7.80;99.90;;;;;;6124850;23;20493;-70
2023/02/04 07:50:28;;;;;;;7.03;2.60;;;7.90;99.90;;;;;;6116151;23;20908;-70
2023/02/04 07:52:55;;;;;;;15.77;3.40;;;8.00;99.90;;;;;;6115092;23;20433;-71
2023/02/04 07:55:22;;;;;;;7.20;2.47;;;8.00;99.90;;;;;;6116317;23;20414;-71
2023/02/04 07:57:48;;;;;;;8.60;3.10;;;8.00;99.90;;;;;;6117165;23;20414;-71
2023/02/04 08:00:18;;;;;;;14.70;3.10;;;8.00;99.90;;;;;;6114962;23;20526;-70
2023/02/04 08:02:45;;;;;;;9.60;3.27;;;8.10;99.90;;;;;;6117428;23;20459;-70
2023/02/04 08:05:12;;;;;;;9.33;3.43;;;8.00;99.90;;;;;;6114061;23;21117;-69
2023/02/04 08:07:41;;;;;;;7.80;3.00;;;8.00;99.90;;;;;;6115528;23;20446;-70
2023/02/04 08:10:10;;;;;;;7.07;5.03;;;8.00;99.90;;;;;;6118386;23;20484;-70
2023/02/04 08:12:37;;;;;;;13.90;4.60;;;8.10;99.90;;;;;;6114745;23;20437;-70
2023/02/04 08:15:05;;;;;;;9.93;2.47;;;8.00;99.90;;;;;;6115848;23;21254;-72
2023/02/04 08:17:32;;;;;;;4.13;2.90;;;8.20;99.90;;;;;;6086946;23;20537;-70
2023/02/04 08:19:59;;;;;;;4.67;2.73;;;8.30;99.90;;;;;;6112886;23;20490;-70
2023/02/04 08:22:29;;;;;;;3.47;2.03;;;8.40;99.90;;;;;;6063639;23;20510;-71
2023/02/04 08:25:00;;;;;;;9.13;2.83;;;8.50;99.90;;;;;;6115926;23;20461;-68
2023/02/04 08:27:27;;;;;;;16.03;2.57;;;8.70;99.90;;;;;;6118323;23;20502;-70
2023/02/04 08:29:54;;;;;;;16.33;3.73;;;8.60;99.90;;;;;;6117170;23;20519;-71
2023/02/04 08:32:21;;;;;;;11.60;2.70;;;8.70;99.90;;;;;;6121006;23;20453;-70
2023/02/04 08:34:49;;;;;;;2.93;2.37;;;8.60;99.90;;;;;;6121965;23;20415;-70
2023/02/04 08:37:16;;;;;;;6.03;2.63;;;8.50;99.90;;;;;;6118014;23;20468;-69
2023/02/04 08:39:45;;;;;;;15.50;5.37;;;8.50;99.90;;;;;;6116664;23;20839;-69
2023/02/04 08:42:14;;;;;;;19.73;4.10;;;8.60;99.90;;;;;;6127945;23;20482;-68
2023/02/04 08:44:41;;;;;;;15.00;3.87;;;8.60;99.90;;;;;;6113376;23;20414;-68
2023/02/04 08:47:09;;;;;;;24.33;6.97;;;8.70;99.90;;;;;;6116264;23;20451;-70
2023/02/04 08:49:37;;;;;;;17.37;3.67;;;8.80;99.90;;;;;;6116287;23;20466;-70
2023/02/04 08:52:05;;;;;;;3.13;2.63;;;8.90;99.90;;;;;;6116519;23;20464;-70
2023/02/04 08:54:33;;;;;;;4.73;2.20;;;8.80;99.90;;;;;;6118646;23;20720;-69
2023/02/04 08:57:00;;;;;;;5.43;2.33;;;8.80;99.90;;;;;;6115862;23;20392;-70
2023/02/04 08:59:29;;;;;;;14.73;2.97;;;8.90;99.90;;;;;;6116218;23;20393;-69
2023/02/04 09:01:57;;;;;;;7.20;3.10;;;9.00;99.90;;;;;;6117402;23;20514;-68
2023/02/04 09:04:24;;;;;;;8.13;2.40;;;9.20;99.90;;;;;;6115123;23;20952;-70
2023/02/04 09:06:52;;;;;;;9.33;4.30;;;9.40;99.90;;;;;;6118164;23;20468;-70
2023/02/04 09:09:19;;;;;;;16.40;3.53;;;9.50;99.90;;;;;;6118856;23;20385;-69
2023/02/04 09:11:46;;;;;;;8.53;3.10;;;9.60;99.90;;;;;;6114429;23;20961;-69
2023/02/04 09:14:14;;;;;;;12.20;4.50;;;9.60;99.90;;;;;;6113944;23;20476;-70
2023/02/04 09:16:42;;;;;;;8.07;3.90;;;9.40;99.90;;;;;;6117909;23;20393;-70
2023/02/04 09:19:11;;;;;;;7.03;3.17;;;9.30;99.90;;;;;;6115757;23;20450;-69
2023/02/04 09:21:38;;;;;;;9.57;4.13;;;9.40;99.90;;;;;;6116218;23;20461;-69
2023/02/04 09:24:07;;;;;;;10.00;4.60;;;9.60;99.90;;;;;;6115493;23;20954;-70
2023/02/04 09:26:34;;;;;;;8.80;3.00;;;9.80;99.90;;;;;;6113360;23;20417;-69
2023/02/04 09:29:01;;;;;;;13.17;4.13;;;9.90;99.90;;;;;;6112925;23;20497;-70
2023/02/04 09:31:28;;;;;;;7.93;3.73;;;9.80;99.90;;;;;;6113472;23;20431;-70
2023/02/04 09:33:56;;;;;;;7.20;3.67;;;9.80;99.90;;;;;;6115659;23;20926;-68
2023/02/04 09:36:27;;;;;;;11.30;3.70;;;10.00;99.90;;;;;;6061750;23;20470;-69
2023/02/04 09:38:54;;;;;;;8.40;3.20;;;10.10;99.90;;;;;;6119690;23;20388;-69
2023/02/04 09:41:21;;;;;;;22.43;5.07;;;10.20;99.90;;;;;;6119066;23;20867;-67
2023/02/04 09:43:48;;;;;;;7.37;3.50;;;10.10;99.90;;;;;;6111257;23;20447;-69
2023/02/04 09:46:20;;;;;;;14.80;5.00;;;10.30;99.90;;;;;;6113453;23;20502;-70
2023/02/04 09:48:48;;;;;;;7.13;3.20;;;10.00;99.90;;;;;;6063734;23;20626;-70
2023/02/04 09:51:19;;;;;;;20.90;4.47;;;10.00;99.90;;;;;;6115345;23;20431;-70
2023/02/04 09:53:47;;;;;;;9.37;2.57;;;10.00;99.90;;;;;;6116285;23;20420;-70
2023/02/04 09:56:15;;;;;;;30.93;3.80;;;10.00;99.90;;;;;;6118839;23;20411;-69
2023/02/04 09:58:43;;;;;;;21.60;6.40;;;10.10;99.90;;;;;;6113389;23;20386;-70
2023/02/04 10:01:15;;;;;;;8.07;3.43;;;10.30;99.90;;;;;;6113414;23;20965;-68
2023/02/04 10:03:46;;;;;;;14.43;4.37;;;10.50;99.90;;;;;;6115737;23;20527;-70
2023/02/04 10:06:14;;;;;;;10.43;3.00;;;10.60;99.90;;;;;;6112638;23;20402;-70
2023/02/04 10:08:43;;;;;;;30.27;3.20;;;10.70;99.90;;;;;;6115967;23;20533;-70
2023/02/04 10:11:11;;;;;;;6.60;4.07;;;10.80;99.90;;;;;;6116429;23;20777;-69
2023/02/04 10:13:49;;;;;;;14.43;4.03;;;10.90;99.90;;;;;;6116446;23;20435;-67
2023/02/04 10:16:18;;;;;;;5.50;2.50;;;10.90;99.90;;;;;;6114989;23;20470;-71
2023/02/04 10:18:45;;;;;;;12.50;4.43;;;11.10;99.90;;;;;;6112646;23;20898;-69
2023/02/04 10:21:17;;;;;;;7.00;2.70;;;11.30;99.90;;;;;;6094038;23;20430;-72
2023/02/04 10:23:48;;;;;;;19.93;3.97;;;11.10;99.90;;;;;;6122862;23;20423;-70
2023/02/04 10:26:16;;;;;;;6.63;4.70;;;11.10;99.90;;;;;;6118924;23;20414;-72
2023/02/04 10:28:44;;;;;;;11.30;3.80;;;11.30;99.90;;;;;;6118003;23;20543;-69
2023/02/04 10:31:34;;;;;;;7.83;3.03;;;11.20;99.90;;;;;;6122005;23;20894;-69
2023/02/04 10:34:11;;;;;;;20.77;6.80;;;11.30;99.90;;;;;;6119109;23;20912;-70
2023/02/04 10:36:40;;;;;;;11.50;3.70;;;11.20;99.90;;;;;;6115676;23;20817;-69
2023/02/04 10:39:12;;;;;;;17.03;6.50;;;11.20;99.90;;;;;;6116241;23;20425;-71
2023/02/04 10:41:45;;;;;;;7.60;3.50;;;11.20;99.90;;;;;;6117177;23;21022;-71
2023/02/04 10:44:13;;;;;;;21.27;5.10;;;11.10;99.90;;;;;;6117891;23;20474;-70
2023/02/04 10:46:40;;;;;;;8.13;3.40;;;11.30;99.90;;;;;;6120302;23;20413;-70
2023/02/04 10:49:19;;;;;;;6.77;2.73;;;11.10;99.90;;;;;;6118619;23;20859;-71
2023/02/04 10:51:46;;;;;;;10.27;3.10;;;11.10;99.90;;;;;;6115840;23;20489;-69
2023/02/04 10:54:30;;;;;;;9.63;2.63;;;11.50;99.90;;;;;;6118628;23;20419;-71
2023/02/04 10:56:59;;;;;;;18.93;4.20;;;11.60;99.90;;;;;;6111147;23;20402;-68
2023/02/04 10:59:28;;;;;;;10.50;3.80;;;11.80;99.90;;;;;;6115766;23;20407;-70
2023/02/04 11:01:57;;;;;;;13.33;2.77;;;11.70;99.90;;;;;;6118193;23;20891;-69
2023/02/04 11:04:25;;;;;;;10.07;3.20;;;11.30;99.90;;;;;;6110012;23;20414;-70
2023/02/04 11:06:53;;;;;;;6.70;3.60;;;11.40;99.90;;;;;;6112442;23;20614;-70
2023/02/04 11:09:22;;;;;;;15.17;4.03;;;11.60;99.90;;;;;;6112034;23;20538;-70
2023/02/04 11:11:59;;;;;;;8.57;4.77;;;11.70;99.90;;;;;;6110981;23;20954;-70
2023/02/04 11:14:30;;;;;;;13.77;4.80;;;11.80;99.90;;;;;;6110245;23;20742;-69
2023/02/04 11:16:59;;;;;;;13.50;3.53;;;11.20;99.90;;;;;;6106724;23;20416;-68
2023/02/04 11:19:35;;;;;;;14.50;3.53;;;11.40;99.90;;;;;;6059145;23;20415;-69
2023/02/04 11:22:25;;;;;;;17.60;3.23;;;11.40;99.90;;;;;;6108472;23;20441;-70
2023/02/04 11:24:54;;;;;;;11.50;4.70;;;11.30;99.90;;;;;;6111736;23;20423;-70
2023/02/04 11:27:24;;;;;;;19.80;4.57;;;11.20;99.90;;;;;;6113172;23;20415;-70
2023/02/04 11:29:51;;;;;;;8.20;2.67;;;11.00;99.90;;;;;;6116095;23;20397;-70
2023/02/04 11:32:32;;;;;;;12.60;4.83;;;11.10;99.90;;;;;;6114962;23;21081;-70
2023/02/04 11:35:23;;;;;;;13.63;3.97;;;10.90;99.90;;;;;;6113129;23;20391;-68
2023/02/04 11:37:50;;;;;;;12.77;4.97;;;10.90;99.90;;;;;;6112240;23;20770;-71
2023/02/04 11:40:25;;;;;;;12.03;3.70;;;10.90;99.90;;;;;;6107827;23;20411;-70
2023/02/04 11:42:58;;;;;;;20.13;4.90;;;11.00;99.90;;;;;;6111726;23;20469;-70
2023/02/04 11:45:29;;;;;;;9.53;4.17;;;11.10;99.90;;;;;;6081009;23;20861;-70
2023/02/04 11:47:59;;;;;;;12.20;3.90;;;11.20;99.90;;;;;;6105348;23;20458;-70
2023/02/04 11:50:30;;;;;;;7.37;4.40;;;11.30;99.90;;;;;;6111318;23;20414;-70
2023/02/04 11:53:00;;;;;;;7.33;4.27;;;11.40;99.90;;;;;;6110879;23;20442;-69
2023/02/04 11:55:33;;;;;;;9.33;3.77;;;11.50;99.90;;;;;;6111471;23;20407;-71
2023/02/04 11:58:00;;;;;;;20.53;3.40;;;11.30;99.90;;;;;;6109650;23;20437;-70
2023/02/04 12:00:30;;;;;;;12.57;4.17;;;11.20;99.90;;;;;;6109411;23;20382;-70
2023/02/04 12:03:00;;;;;;;15.20;4.27;;;11.40;99.90;;;;;;6111798;23;20386;-69
2023/02/04 12:05:40;;;;;;;11.03;4.70;;;11.40;99.90;;;;;;6114705;23;20758;-70
2023/02/04 12:08:13;;;;;;;16.27;3.93;;;11.50;99.90;;;;;;6118727;23;20431;-69
2023/02/04 12:10:49;;;;;;;14.30;4.13;;;11.40;99.90;;;;;;6118994;23;20451;-69
2023/02/04 12:13:18;;;;;;;6.10;3.30;;;11.40;99.90;;;;;;6118262;23;20465;-69
2023/02/04 12:15:54;;;;;;;16.73;5.57;;;11.40;99.90;;;;;;6117878;23;20453;-69
2023/02/04 12:18:21;;;;;;;9.43;4.07;;;11.50;99.90;;;;;;6120588;23;20742;-70
2023/02/04 12:20:48;;;;;;;11.53;4.40;;;11.50;99.90;;;;;;6120969;23;20439;-69
2023/02/04 12:23:15;;;;;;;19.33;5.60;;;11.40;99.90;;;;;;6119919;23;21183;-68
2023/02/04 12:25:43;;;;;;;12.03;5.10;;;11.30;99.90;;;;;;6131383;23;20393;-69
2023/02/04 12:28:10;;;;;;;5.37;3.70;;;11.30;99.90;;;;;;6121976;23;20549;-69
2023/02/04 12:30:38;;;;;;;12.53;3.93;;;11.20;99.90;;;;;;6121761;23;20410;-69
2023/02/04 12:33:07;;;;;;;14.73;3.33;;;11.10;99.90;;;;;;6122223;23;20411;-70
2023/02/04 12:35:34;;;;;;;14.67;3.63;;;10.90;99.90;;;;;;6122218;23;20382;-70
2023/02/04 12:38:02;;;;;;;11.10;4.93;;;11.10;99.90;;;;;;6121988;23;20399;-70
2023/02/04 12:40:29;;;;;;;12.10;4.27;;;11.20;99.90;;;;;;6119719;23;20415;-68
2023/02/04 12:42:58;;;;;;;12.23;3.87;;;11.30;99.90;;;;;;6115994;23;20875;-70
2023/02/04 12:45:25;;;;;;;9.50;3.10;;;11.30;99.90;;;;;;6121306;23;20734;-70
2023/02/04 12:47:52;;;;;;;6.80;3.50;;;11.50;99.90;;;;;;6123356;23;20935;-69
2023/02/04 12:50:21;;;;;;;14.97;3.70;;;11.50;99.90;;;;;;6120254;23;20933;-69
2023/02/04 12:52:49;;;;;;;17.10;5.00;;;11.50;99.90;;;;;;6118266;23;20462;-69
2023/02/04 12:55:17;;;;;;;7.37;3.43;;;11.40;99.90;;;;;;6121110;23;20487;-69